sensor_id;sensor_type;location;lat;lon;timestamp;temperature;humidity
4207;DHT22;2117;47.972;7.830;2022-09-09T03:32:13;16.30;99.90
4207;DHT22;2117;47.972;7.830;2022-09-09T03:34:43;16.30;99.90
4207;DHT22;2117;47.972;7.830;2022-09-09T03:37:08;16.30;99.90
4207;DHT22;2117;47.972;7.830;2022-09-09T03:39:34;16.30;99.90
4207;DHT22;2117;47.972;7.830;2022-09-09T03:41:59;16.30;99.90
4207;DHT22;2117;47.972;7.830;2022-09-09T03:44:27;16.40;99.90
4207;DHT22;2117;47.972;7.830;2022-09-09T03:46:52;16.40;99.90
4207;DHT22;2117;47.972;7.830;2022-09-09T03:49:18;16.50;99.90
4207;DHT22;2117;47.972;7.830;2022-09-09T03:51:45;16.40;99.90
4207;DHT22;2117;47.972;7.830;2022-09-09T03:54:11;16.40;99.90
4207;DHT22;2117;47.972;7.830;2022-09-09T03:56:36;16.50;99.90
4207;DHT22;2117;47.972;7.830;2022-09-09T03:59:03;16.50;99.90
4207;DHT22;2117;47.972;7.830;2022-09-09T04:01:29;16.50;99.90
4207;DHT22;2117;47.972;7.830;2022-09-09T04:03:55;16.50;99.90
4207;DHT22;2117;47.972;7.830;2022-09-09T04:06:23;16.60;99.90
4207;DHT22;2117;47.972;7.830;2022-09-09T04:08:49;16.60;99.90
4207;DHT22;2117;47.972;7.830;2022-09-09T04:11:16;16.70;99.90
4207;DHT22;2117;47.972;7.830;2022-09-09T04:13:42;16.70;99.90
4207;DHT22;2117;47.972;7.830;2022-09-09T04:16:09;16.70;99.90
4207;DHT22;2117;47.972;7.830;2022-09-09T04:18:35;16.70;99.90
4207;DHT22;2117;47.972;7.830;2022-09-09T04:21:02;16.70;99.90
4207;DHT22;2117;47.972;7.830;2022-09-09T04:23:29;16.70;99.90
4207;DHT22;2117;47.972;7.830;2022-09-09T04:25:56;16.70;99.90
4207;DHT22;2117;47.972;7.830;2022-09-09T04:28:24;16.80;99.90
4207;DHT22;2117;47.972;7.830;2022-09-09T04:30:50;16.70;99.90
4207;DHT22;2117;47.972;7.830;2022-09-09T04:33:15;16.70;99.90
4207;DHT22;2117;47.972;7.830;2022-09-09T04:35:50;16.70;99.90
4207;DHT22;2117;47.972;7.830;2022-09-09T04:38:21;16.70;99.90
4207;DHT22;2117;47.972;7.830;2022-09-09T04:40:49;16.70;99.90
4207;DHT22;2117;47.972;7.830;2022-09-09T04:43:15;16.70;99.90
4207;DHT22;2117;47.972;7.830;2022-09-09T04:45:42;16.70;99.90
4207;DHT22;2117;47.972;7.830;2022-09-09T04:48:08;16.70;99.90
4207;DHT22;2117;47.972;7.830;2022-09-09T04:50:35;16.70;99.90
4207;DHT22;2117;47.972;7.830;2022-09-09T04:53:04;16.70;99.90
4207;DHT22;2117;47.972;7.830;2022-09-09T04:55:30;16.80;99.90
4207;DHT22;2117;47.972;7.830;2022-09-09T04:57:56;16.80;99.90
4207;DHT22;2117;47.972;7.830;2022-09-09T05:00:23;16.80;99.90
4207;DHT22;2117;47.972;7.830;2022-09-09T05:02:49;16.80;99.90
4207;DHT22;2117;47.972;7.830;2022-09-09T05:05:14;16.80;99.90
4207;DHT22;2117;47.972;7.830;2022-09-09T05:07:40;16.90;99.90
4207;DHT22;2117;47.972;7.830;2022-09-09T05:10:07;17.10;99.90
4207;DHT22;2117;47.972;7.830;2022-09-09T05:12:33;17.30;99.90
4207;DHT22;2117;47.972;7.830;2022-09-09T05:14:58;17.50;99.90
4207;DHT22;2117;47.972;7.830;2022-09-09T05:17:24;17.70;99.90
4207;DHT22;2117;47.972;7.830;2022-09-09T05:19:49;17.70;99.90
4207;DHT22;2117;47.972;7.830;2022-09-09T05:22:21;17.90;99.90
4207;DHT22;2117;47.972;7.830;2022-09-09T05:24:49;17.90;99.90
4207;DHT22;2117;47.972;7.830;2022-09-09T05:27:17;18.00;99.90
4207;DHT22;2117;47.972;7.830;2022-09-09T05:29:43;18.00;99.90
4207;DHT22;2117;47.972;7.830;2022-09-09T05:32:09;18.10;99.90
4207;DHT22;2117;47.972;7.830;2022-09-09T05:34:35;18.10;99.90
4207;DHT22;2117;47.972;7.830;2022-09-09T05:37:03;18.10;99.90
4207;DHT22;2117;47.972;7.830;2022-09-09T05:39:29;18.20;99.90
4207;DHT22;2117;47.972;7.830;2022-09-09T05:41:55;18.20;99.90
4207;DHT22;2117;47.972;7.830;2022-09-09T05:44:20;18.20;99.90
4207;DHT22;2117;47.972;7.830;2022-09-09T05:46:48;18.20;99.90
4207;DHT22;2117;47.972;7.830;2022-09-09T05:49:14;18.30;99.90
4207;DHT22;2117;47.972;7.830;2022-09-09T05:51:41;18.30;99.90
4207;DHT22;2117;47.972;7.830;2022-09-09T05:54:08;18.30;99.90
4207;DHT22;2117;47.972;7.830;2022-09-09T05:56:34;18.30;99.90
4207;DHT22;2117;47.972;7.830;2022-09-09T05:59:00;18.40;99.90
4207;DHT22;2117;47.972;7.830;2022-09-09T06:01:28;18.40;99.90
4207;DHT22;2117;47.972;7.830;2022-09-09T06:03:54;18.40;99.90
4207;DHT22;2117;47.972;7.830;2022-09-09T06:06:22;18.40;99.90
4207;DHT22;2117;47.972;7.830;2022-09-09T06:08:50;18.40;99.90
4207;DHT22;2117;47.972;7.830;2022-09-09T06:11:19;18.50;99.90
4207;DHT22;2117;47.972;7.830;2022-09-09T06:13:45;18.50;99.90
4207;DHT22;2117;47.972;7.830;2022-09-09T06:16:16;18.60;99.90
4207;DHT22;2117;47.972;7.830;2022-09-09T06:18:42;18.60;99.90
4207;DHT22;2117;47.972;7.830;2022-09-09T06:23:50;18.60;99.90
4207;DHT22;2117;47.972;7.830;2022-09-09T06:26:23;18.60;99.90
4207;DHT22;2117;47.972;7.830;2022-09-09T06:28:51;18.60;99.90
4207;DHT22;2117;47.972;7.830;2022-09-09T06:31:20;18.60;99.90
4207;DHT22;2117;47.972;7.830;2022-09-09T06:33:47;18.50;99.90
4207;DHT22;2117;47.972;7.830;2022-09-09T06:36:15;18.30;99.90
4207;DHT22;2117;47.972;7.830;2022-09-09T06:38:41;18.30;99.90
4207;DHT22;2117;47.972;7.830;2022-09-09T06:41:09;18.20;99.90
4207;DHT22;2117;47.972;7.830;2022-09-09T06:43:35;18.20;99.90
4207;DHT22;2117;47.972;7.830;2022-09-09T06:46:06;18.10;99.90
4207;DHT22;2117;47.972;7.830;2022-09-09T06:48:33;18.10;99.90
4207;DHT22;2117;47.972;7.830;2022-09-09T06:51:13;18.00;99.90
4207;DHT22;2117;47.972;7.830;2022-09-09T06:53:40;18.10;99.90
4207;DHT22;2117;47.972;7.830;2022-09-09T06:56:20;18.10;99.90
4207;DHT22;2117;47.972;7.830;2022-09-09T06:58:49;18.10;99.90
4207;DHT22;2117;47.972;7.830;2022-09-09T07:01:19;18.20;99.90
4207;DHT22;2117;47.972;7.830;2022-09-09T07:03:47;18.20;99.90
4207;DHT22;2117;47.972;7.830;2022-09-09T07:06:22;18.20;99.90
4207;DHT22;2117;47.972;7.830;2022-09-09T07:08:56;18.30;99.90
4207;DHT22;2117;47.972;7.830;2022-09-09T07:11:26;18.30;99.90
4207;DHT22;2117;47.972;7.830;2022-09-09T07:13:56;18.40;99.90
4207;DHT22;2117;47.972;7.830;2022-09-09T07:16:22;18.40;99.90
4207;DHT22;2117;47.972;7.830;2022-09-09T07:18:53;18.40;99.90
4207;DHT22;2117;47.972;7.830;2022-09-09T07:21:24;18.40;99.90
4207;DHT22;2117;47.972;7.830;2022-09-09T07:23:51;18.50;99.90
4207;DHT22;2117;47.972;7.830;2022-09-09T07:26:19;18.50;99.90
4207;DHT22;2117;47.972;7.830;2022-09-09T07:28:46;18.50;99.90
4207;DHT22;2117;47.972;7.830;2022-09-09T07:31:21;18.50;99.90
4207;DHT22;2117;47.972;7.830;2022-09-09T07:33:47;18.60;99.90
4207;DHT22;2117;47.972;7.830;2022-09-09T07:36:17;18.50;99.90
4207;DHT22;2117;47.972;7.830;2022-09-09T07:38:48;18.50;99.90
4207;DHT22;2117;47.972;7.830;2022-09-09T07:43:49;18.50;99.90
4207;DHT22;2117;47.972;7.830;2022-09-09T07:46:16;18.50;99.90
4207;DHT22;2117;47.972;7.830;2022-09-09T07:48:50;18.60;99.90
4207;DHT22;2117;47.972;7.830;2022-09-09T07:51:19;18.70;99.90
4207;DHT22;2117;47.972;7.830;2022-09-09T07:53:46;18.70;99.90
4207;DHT22;2117;47.972;7.830;2022-09-09T07:56:15;18.80;99.90
4207;DHT22;2117;47.972;7.830;2022-09-09T07:58:44;18.80;99.90
4207;DHT22;2117;47.972;7.830;2022-09-09T08:01:15;18.80;99.90
4207;DHT22;2117;47.972;7.830;2022-09-09T08:03:43;18.80;99.90
4207;DHT22;2117;47.972;7.830;2022-09-09T08:06:10;18.70;99.90
4207;DHT22;2117;47.972;7.830;2022-09-09T08:08:38;18.70;99.90
4207;DHT22;2117;47.972;7.830;2022-09-09T08:11:14;18.80;99.90
4207;DHT22;2117;47.972;7.830;2022-09-09T08:13:40;18.80;99.90
4207;DHT22;2117;47.972;7.830;2022-09-09T08:16:12;18.80;99.90
4207;DHT22;2117;47.972;7.830;2022-09-09T08:18:38;18.80;99.90
4207;DHT22;2117;47.972;7.830;2022-09-09T08:21:12;18.80;99.90
4207;DHT22;2117;47.972;7.830;2022-09-09T08:23:42;18.80;99.90
4207;DHT22;2117;47.972;7.830;2022-09-09T08:26:15;18.90;99.90
4207;DHT22;2117;47.972;7.830;2022-09-09T08:28:42;18.90;99.90
4207;DHT22;2117;47.972;7.830;2022-09-09T08:31:12;18.90;99.90
4207;DHT22;2117;47.972;7.830;2022-09-09T08:33:39;18.90;99.90
4207;DHT22;2117;47.972;7.830;2022-09-09T08:36:08;18.90;99.90
4207;DHT22;2117;47.972;7.830;2022-09-09T08:38:34;18.90;99.90
4207;DHT22;2117;47.972;7.830;2022-09-09T08:50:22;19.10;99.90
4207;DHT22;2117;47.972;7.830;2022-09-09T08:57:53;19.40;99.90
4207;DHT22;2117;47.972;7.830;2022-09-09T09:00:20;19.50;99.90
4207;DHT22;2117;47.972;7.830;2022-09-09T09:05:31;19.60;99.90
4207;DHT22;2117;47.972;7.830;2022-09-09T09:10:48;19.90;99.90
4207;DHT22;2117;47.972;7.830;2022-09-09T09:15:44;20.00;99.90
4207;DHT22;2117;47.972;7.830;2022-09-09T09:18:12;20.10;99.90
4207;DHT22;2117;47.972;7.830;2022-09-09T09:20:49;20.20;99.90
4207;DHT22;2117;47.972;7.830;2022-09-09T09:23:23;20.20;99.90
4207;DHT22;2117;47.972;7.830;2022-09-09T09:25:50;20.40;99.90
4207;DHT22;2117;47.972;7.830;2022-09-09T09:28:23;20.60;99.90
4207;DHT22;2117;47.972;7.830;2022-09-09T09:31:10;20.60;99.90
4207;DHT22;2117;47.972;7.830;2022-09-09T09:33:53;20.40;99.90
4207;DHT22;2117;47.972;7.830;2022-09-09T09:36:24;20.40;99.90
4207;DHT22;2117;47.972;7.830;2022-09-09T09:38:56;20.30;99.90
4207;DHT22;2117;47.972;7.830;2022-09-09T09:41:36;20.20;99.90
4207;DHT22;2117;47.972;7.830;2022-09-09T09:44:04;20.10;99.90
4207;DHT22;2117;47.972;7.830;2022-09-09T09:46:31;20.00;99.90
4207;DHT22;2117;47.972;7.830;2022-09-09T09:49:04;20.00;99.90
4207;DHT22;2117;47.972;7.830;2022-09-09T09:51:34;20.00;99.90
4207;DHT22;2117;47.972;7.830;2022-09-09T09:54:09;20.10;99.90
4207;DHT22;2117;47.972;7.830;2022-09-09T09:56:43;20.20;99.90
4207;DHT22;2117;47.972;7.830;2022-09-09T09:59:34;20.30;99.90
4207;DHT22;2117;47.972;7.830;2022-09-09T10:02:20;20.40;99.90
4207;DHT22;2117;47.972;7.830;2022-09-09T10:04:46;20.60;99.90
4207;DHT22;2117;47.972;7.830;2022-09-09T10:07:19;20.70;99.90
4207;DHT22;2117;47.972;7.830;2022-09-09T10:09:46;20.80;99.90
4207;DHT22;2117;47.972;7.830;2022-09-09T10:18:02;21.00;99.90
4207;DHT22;2117;47.972;7.830;2022-09-09T10:23:16;21.20;99.90
4207;DHT22;2117;47.972;7.830;2022-09-09T10:39:53;19.50;99.90
4207;DHT22;2117;47.972;7.830;2022-09-09T10:42:26;18.50;99.90
4207;DHT22;2117;47.972;7.830;2022-09-09T10:45:18;17.90;99.90
4207;DHT22;2117;47.972;7.830;2022-09-09T10:48:16;17.50;99.90
4207;DHT22;2117;47.972;7.830;2022-09-09T10:55:47;17.30;99.90
4207;DHT22;2117;47.972;7.830;2022-09-09T10:58:23;17.30;99.90
4207;DHT22;2117;47.972;7.830;2022-09-09T11:00:58;17.40;99.90
4207;DHT22;2117;47.972;7.830;2022-09-09T11:03:26;17.50;99.90
4207;DHT22;2117;47.972;7.830;2022-09-09T11:05:59;17.90;99.90
4207;DHT22;2117;47.972;7.830;2022-09-09T11:08:27;17.90;99.90
4207;DHT22;2117;47.972;7.830;2022-09-09T11:11:17;18.10;99.90
4207;DHT22;2117;47.972;7.830;2022-09-09T11:13:55;18.30;99.90
4207;DHT22;2117;47.972;7.830;2022-09-09T11:16:45;18.50;99.90
4207;DHT22;2117;47.972;7.830;2022-09-09T11:19:33;18.70;99.90
4207;DHT22;2117;47.972;7.830;2022-09-09T11:25:29;19.00;99.90
4207;DHT22;2117;47.972;7.830;2022-09-09T11:28:32;19.00;99.90
4207;DHT22;2117;47.972;7.830;2022-09-09T11:31:10;19.10;99.90
4207;DHT22;2117;47.972;7.830;2022-09-09T11:34:43;19.10;99.90
4207;DHT22;2117;47.972;7.830;2022-09-09T11:42:19;20.30;99.90
4207;DHT22;2117;47.972;7.830;2022-09-09T11:44:46;20.60;99.90
4207;DHT22;2117;47.972;7.830;2022-09-09T11:47:22;20.50;99.90
4207;DHT22;2117;47.972;7.830;2022-09-09T11:49:50;20.50;99.90
4207;DHT22;2117;47.972;7.830;2022-09-09T11:52:24;20.70;99.90
4207;DHT22;2117;47.972;7.830;2022-09-09T11:54:54;21.00;99.90
4207;DHT22;2117;47.972;7.830;2022-09-09T11:57:34;21.40;99.90
4207;DHT22;2117;47.972;7.830;2022-09-09T12:00:01;21.40;99.90
4207;DHT22;2117;47.972;7.830;2022-09-09T12:02:28;21.40;99.90
4207;DHT22;2117;47.972;7.830;2022-09-09T12:05:04;21.20;99.90
4207;DHT22;2117;47.972;7.830;2022-09-09T12:10:26;21.20;99.90
4207;DHT22;2117;47.972;7.830;2022-09-09T12:12:53;21.10;99.90
4207;DHT22;2117;47.972;7.830;2022-09-09T12:15:27;21.20;99.90
4207;DHT22;2117;47.972;7.830;2022-09-09T12:17:58;21.20;99.90
4207;DHT22;2117;47.972;7.830;2022-09-09T12:20:34;21.30;99.90
4207;DHT22;2117;47.972;7.830;2022-09-09T12:29:48;21.70;99.90
4207;DHT22;2117;47.972;7.830;2022-09-09T12:32:01;22.20;99.90
4207;DHT22;2117;47.972;7.830;2022-09-09T12:34:40;22.30;99.90
4207;DHT22;2117;47.972;7.830;2022-09-09T12:37:36;22.30;99.90
4207;DHT22;2117;47.972;7.830;2022-09-09T12:42:46;21.90;99.90
4207;DHT22;2117;47.972;7.830;2022-09-09T12:45:31;21.70;99.90
4207;DHT22;2117;47.972;7.830;2022-09-09T12:50:33;21.50;99.90
4207;DHT22;2117;47.972;7.830;2022-09-09T12:53:04;21.40;99.90
4207;DHT22;2117;47.972;7.830;2022-09-09T12:55:38;21.40;99.90
4207;DHT22;2117;47.972;7.830;2022-09-09T12:58:05;21.40;99.90
4207;DHT22;2117;47.972;7.830;2022-09-09T13:00:33;21.40;99.90
4207;DHT22;2117;47.972;7.830;2022-09-09T13:03:00;21.50;99.90
4207;DHT22;2117;47.972;7.830;2022-09-09T13:05:34;21.60;99.90
4207;DHT22;2117;47.972;7.830;2022-09-09T13:08:03;21.50;99.90
4207;DHT22;2117;47.972;7.830;2022-09-09T13:10:33;21.60;99.90
4207;DHT22;2117;47.972;7.830;2022-09-09T13:13:00;21.40;99.90
4207;DHT22;2117;47.972;7.830;2022-09-09T13:15:28;21.20;99.90
4207;DHT22;2117;47.972;7.830;2022-09-09T13:17:57;21.20;99.90
4207;DHT22;2117;47.972;7.830;2022-09-09T13:20:24;21.10;99.90
4207;DHT22;2117;47.972;7.830;2022-09-09T13:22:51;20.90;99.90
4207;DHT22;2117;47.972;7.830;2022-09-09T13:25:28;20.50;99.90
4207;DHT22;2117;47.972;7.830;2022-09-09T13:27:57;20.10;99.90
4207;DHT22;2117;47.972;7.830;2022-09-09T13:30:35;19.90;99.90
4207;DHT22;2117;47.972;7.830;2022-09-09T13:35:55;19.40;99.90
4207;DHT22;2117;47.972;7.830;2022-09-09T13:38:22;19.10;99.90
4207;DHT22;2117;47.972;7.830;2022-09-09T13:43:25;19.00;99.90
4207;DHT22;2117;47.972;7.830;2022-09-09T13:45:59;19.00;99.90
4207;DHT22;2117;47.972;7.830;2022-09-09T13:48:26;19.30;99.90
4207;DHT22;2117;47.972;7.830;2022-09-09T13:51:03;19.70;99.90
4207;DHT22;2117;47.972;7.830;2022-09-09T13:53:32;20.10;99.90
4207;DHT22;2117;47.972;7.830;2022-09-09T13:55:58;21.30;99.90
4207;DHT22;2117;47.972;7.830;2022-09-09T13:58:25;21.30;99.90
4207;DHT22;2117;47.972;7.830;2022-09-09T14:00:52;21.80;99.90
4207;DHT22;2117;47.972;7.830;2022-09-09T14:03:19;22.20;99.90
4207;DHT22;2117;47.972;7.830;2022-09-09T14:05:45;22.60;99.90
4207;DHT22;2117;47.972;7.830;2022-09-09T14:08:16;23.20;99.90
4207;DHT22;2117;47.972;7.830;2022-09-09T14:10:45;23.80;99.90
4207;DHT22;2117;47.972;7.830;2022-09-09T14:13:10;24.10;99.90
4207;DHT22;2117;47.972;7.830;2022-09-09T14:15:37;24.00;99.90
4207;DHT22;2117;47.972;7.830;2022-09-09T14:18:03;23.60;99.90
4207;DHT22;2117;47.972;7.830;2022-09-09T14:20:29;23.20;99.90
4207;DHT22;2117;47.972;7.830;2022-09-09T14:22:54;23.10;99.90
4207;DHT22;2117;47.972;7.830;2022-09-09T14:25:20;22.90;99.90
4207;DHT22;2117;47.972;7.830;2022-09-09T14:27:45;23.00;99.90
4207;DHT22;2117;47.972;7.830;2022-09-09T14:30:11;22.90;99.90
4207;DHT22;2117;47.972;7.830;2022-09-09T14:32:37;22.80;99.90
4207;DHT22;2117;47.972;7.830;2022-09-09T14:35:03;22.60;99.90
4207;DHT22;2117;47.972;7.830;2022-09-09T14:37:29;22.50;99.90
4207;DHT22;2117;47.972;7.830;2022-09-09T14:39:56;22.60;99.90
4207;DHT22;2117;47.972;7.830;2022-09-09T14:42:22;23.10;99.90
4207;DHT22;2117;47.972;7.830;2022-09-09T14:44:48;23.50;99.90
4207;DHT22;2117;47.972;7.830;2022-09-09T14:47:14;23.90;99.90
4207;DHT22;2117;47.972;7.830;2022-09-09T14:49:40;24.40;99.90
4207;DHT22;2117;47.972;7.830;2022-09-09T14:52:05;24.40;99.90
4207;DHT22;2117;47.972;7.830;2022-09-09T14:54:31;24.20;99.90
4207;DHT22;2117;47.972;7.830;2022-09-09T14:56:57;23.80;99.90
4207;DHT22;2117;47.972;7.830;2022-09-09T14:59:23;23.50;99.90
4207;DHT22;2117;47.972;7.830;2022-09-09T15:01:49;23.20;99.90
4207;DHT22;2117;47.972;7.830;2022-09-09T15:04:15;23.00;99.90
4207;DHT22;2117;47.972;7.830;2022-09-09T15:06:42;22.80;99.90
4207;DHT22;2117;47.972;7.830;2022-09-09T15:09:10;22.60;99.90
4207;DHT22;2117;47.972;7.830;2022-09-09T15:11:36;22.50;99.90
4207;DHT22;2117;47.972;7.830;2022-09-09T15:14:04;22.40;99.90
4207;DHT22;2117;47.972;7.830;2022-09-09T15:16:30;22.30;99.90
4207;DHT22;2117;47.972;7.830;2022-09-09T15:18:58;22.00;99.90
4207;DHT22;2117;47.972;7.830;2022-09-09T15:21:29;21.80;99.90
4207;DHT22;2117;47.972;7.830;2022-09-09T15:23:56;21.70;99.90
4207;DHT22;2117;47.972;7.830;2022-09-09T15:26:21;21.80;99.90
4207;DHT22;2117;47.972;7.830;2022-09-09T15:28:48;21.60;99.90
4207;DHT22;2117;47.972;7.830;2022-09-09T15:31:24;21.50;99.90
4207;DHT22;2117;47.972;7.830;2022-09-09T15:33:51;21.50;99.90
4207;DHT22;2117;47.972;7.830;2022-09-09T15:36:24;21.30;99.90
4207;DHT22;2117;47.972;7.830;2022-09-09T15:38:51;21.20;99.90
4207;DHT22;2117;47.972;7.830;2022-09-09T15:41:18;21.20;99.90
4207;DHT22;2117;47.972;7.830;2022-09-09T15:43:45;21.10;99.90
4207;DHT22;2117;47.972;7.830;2022-09-09T15:48:43;21.10;99.90
4207;DHT22;2117;47.972;7.830;2022-09-09T15:51:14;21.10;99.90
4207;DHT22;2117;47.972;7.830;2022-09-09T15:53:40;21.00;99.90
4207;DHT22;2117;47.972;7.830;2022-09-09T15:56:06;21.00;99.90
4207;DHT22;2117;47.972;7.830;2022-09-09T15:58:35;20.80;99.90
4207;DHT22;2117;47.972;7.830;2022-09-09T16:01:08;20.70;99.90
4207;DHT22;2117;47.972;7.830;2022-09-09T16:03:35;20.70;99.90
4207;DHT22;2117;47.972;7.830;2022-09-09T16:06:01;20.60;99.90
4207;DHT22;2117;47.972;7.830;2022-09-09T16:08:39;20.50;99.90
4207;DHT22;2117;47.972;7.830;2022-09-09T16:11:13;20.40;99.90
4207;DHT22;2117;47.972;7.830;2022-09-09T16:13:41;20.30;99.90
4207;DHT22;2117;47.972;7.830;2022-09-09T16:16:09;20.20;99.90
4207;DHT22;2117;47.972;7.830;2022-09-09T16:18:43;19.90;99.90
4207;DHT22;2117;47.972;7.830;2022-09-09T16:23:47;18.90;99.90
4207;DHT22;2117;47.972;7.830;2022-09-09T16:26:15;18.70;99.90
4207;DHT22;2117;47.972;7.830;2022-09-09T16:28:41;18.60;99.90
4207;DHT22;2117;47.972;7.830;2022-09-09T16:31:14;18.40;99.90
4207;DHT22;2117;47.972;7.830;2022-09-09T16:33:40;18.20;99.90
4207;DHT22;2117;47.972;7.830;2022-09-09T16:36:14;18.10;99.90
4207;DHT22;2117;47.972;7.830;2022-09-09T16:38:40;18.00;99.90
4207;DHT22;2117;47.972;7.830;2022-09-09T16:41:06;18.00;99.90
4207;DHT22;2117;47.972;7.830;2022-09-09T16:43:33;18.00;99.90
4207;DHT22;2117;47.972;7.830;2022-09-09T16:45:59;18.00;99.90
4207;DHT22;2117;47.972;7.830;2022-09-09T16:48:32;18.00;99.90
4207;DHT22;2117;47.972;7.830;2022-09-09T16:51:13;18.00;99.90
4207;DHT22;2117;47.972;7.830;2022-09-09T16:53:40;18.00;99.90
4207;DHT22;2117;47.972;7.830;2022-09-09T16:56:15;17.90;99.90
4207;DHT22;2117;47.972;7.830;2022-09-09T16:58:42;17.90;99.90
4207;DHT22;2117;47.972;7.830;2022-09-09T17:01:11;18.00;99.90
4207;DHT22;2117;47.972;7.830;2022-09-09T17:03:40;18.00;99.90
4207;DHT22;2117;47.972;7.830;2022-09-09T17:06:09;18.00;99.90
4207;DHT22;2117;47.972;7.830;2022-09-09T17:08:35;17.90;99.90
4207;DHT22;2117;47.972;7.830;2022-09-09T17:11:01;17.90;99.90
4207;DHT22;2117;47.972;7.830;2022-09-09T17:13:26;17.90;99.90
4207;DHT22;2117;47.972;7.830;2022-09-09T17:15:52;17.90;99.90
4207;DHT22;2117;47.972;7.830;2022-09-09T17:18:17;17.80;99.90
4207;DHT22;2117;47.972;7.830;2022-09-09T17:20:43;17.80;99.90
4207;DHT22;2117;47.972;7.830;2022-09-09T17:23:11;17.70;99.90
4207;DHT22;2117;47.972;7.830;2022-09-09T17:25:38;17.70;99.90
4207;DHT22;2117;47.972;7.830;2022-09-09T17:28:04;17.70;99.90
4207;DHT22;2117;47.972;7.830;2022-09-09T17:30:34;17.60;99.90
4207;DHT22;2117;47.972;7.830;2022-09-09T17:33:00;17.50;99.90
4207;DHT22;2117;47.972;7.830;2022-09-09T17:35:26;17.60;99.90
4207;DHT22;2117;47.972;7.830;2022-09-09T17:37:53;17.40;99.90
4207;DHT22;2117;47.972;7.830;2022-09-09T17:40:20;17.40;99.90
4207;DHT22;2117;47.972;7.830;2022-09-09T17:42:46;17.40;99.90
4207;DHT22;2117;47.972;7.830;2022-09-09T17:45:12;17.40;99.90
4207;DHT22;2117;47.972;7.830;2022-09-09T17:47:38;17.30;99.90
4207;DHT22;2117;47.972;7.830;2022-09-09T17:50:05;17.30;99.90
4207;DHT22;2117;47.972;7.830;2022-09-09T17:52:32;17.30;99.90
4207;DHT22;2117;47.972;7.830;2022-09-09T17:54:58;17.20;99.90
4207;DHT22;2117;47.972;7.830;2022-09-09T17:57:23;17.20;99.90
4207;DHT22;2117;47.972;7.830;2022-09-09T17:59:50;17.20;99.90
4207;DHT22;2117;47.972;7.830;2022-09-09T18:02:15;17.20;99.90
4207;DHT22;2117;47.972;7.830;2022-09-09T18:04:41;17.20;99.90
4207;DHT22;2117;47.972;7.830;2022-09-09T18:07:07;17.10;99.90
4207;DHT22;2117;47.972;7.830;2022-09-09T18:09:33;17.10;99.90
4207;DHT22;2117;47.972;7.830;2022-09-09T18:11:59;17.00;99.90
4207;DHT22;2117;47.972;7.830;2022-09-09T18:14:28;17.00;99.90
4207;DHT22;2117;47.972;7.830;2022-09-09T18:16:56;17.00;99.90
4207;DHT22;2117;47.972;7.830;2022-09-09T18:19:24;17.00;99.90
4207;DHT22;2117;47.972;7.830;2022-09-09T18:21:50;17.00;99.90
4207;DHT22;2117;47.972;7.830;2022-09-09T18:24:17;16.90;99.90
4207;DHT22;2117;47.972;7.830;2022-09-09T18:26:44;16.90;99.90
4207;DHT22;2117;47.972;7.830;2022-09-09T18:29:12;16.90;99.90
4207;DHT22;2117;47.972;7.830;2022-09-09T18:31:38;16.90;99.90
4207;DHT22;2117;47.972;7.830;2022-09-09T18:34:06;16.90;99.90
4207;DHT22;2117;47.972;7.830;2022-09-09T18:36:38;16.80;99.90
4207;DHT22;2117;47.972;7.830;2022-09-09T18:39:06;16.80;99.90
4207;DHT22;2117;47.972;7.830;2022-09-09T18:41:39;16.80;99.90
4207;DHT22;2117;47.972;7.830;2022-09-09T18:44:08;16.80;99.90
4207;DHT22;2117;47.972;7.830;2022-09-09T18:46:35;16.70;99.90
4207;DHT22;2117;47.972;7.830;2022-09-09T18:49:02;16.70;99.90
4207;DHT22;2117;47.972;7.830;2022-09-09T18:51:29;16.70;99.90
4207;DHT22;2117;47.972;7.830;2022-09-09T18:53:57;16.70;99.90
4207;DHT22;2117;47.972;7.830;2022-09-09T18:56:23;16.70;99.90
4207;DHT22;2117;47.972;7.830;2022-09-09T18:58:54;16.70;99.90
4207;DHT22;2117;47.972;7.830;2022-09-09T19:01:20;16.70;99.90
4207;DHT22;2117;47.972;7.830;2022-09-09T19:03:47;16.70;99.90
4207;DHT22;2117;47.972;7.830;2022-09-09T19:06:18;16.70;99.90
4207;DHT22;2117;47.972;7.830;2022-09-09T19:08:46;16.70;99.90
4207;DHT22;2117;47.972;7.830;2022-09-09T19:11:15;16.70;99.90
4207;DHT22;2117;47.972;7.830;2022-09-09T19:13:43;16.70;99.90
4207;DHT22;2117;47.972;7.830;2022-09-09T19:16:13;16.70;99.90
4207;DHT22;2117;47.972;7.830;2022-09-09T19:18:40;16.70;99.90
4207;DHT22;2117;47.972;7.830;2022-09-09T19:21:18;16.70;99.90
4207;DHT22;2117;47.972;7.830;2022-09-09T19:23:45;16.70;99.90
4207;DHT22;2117;47.972;7.830;2022-09-09T19:26:12;16.70;99.90
4207;DHT22;2117;47.972;7.830;2022-09-09T19:28:41;16.70;99.90
4207;DHT22;2117;47.972;7.830;2022-09-09T19:31:09;16.70;99.90
4207;DHT22;2117;47.972;7.830;2022-09-09T19:33:35;16.80;99.90
4207;DHT22;2117;47.972;7.830;2022-09-09T19:36:03;16.80;99.90
4207;DHT22;2117;47.972;7.830;2022-09-09T19:38:29;16.80;99.90
4207;DHT22;2117;47.972;7.830;2022-09-09T19:40:55;16.80;99.90
4207;DHT22;2117;47.972;7.830;2022-09-09T19:43:21;16.90;99.90
4207;DHT22;2117;47.972;7.830;2022-09-09T19:46:03;16.90;99.90
4207;DHT22;2117;47.972;7.830;2022-09-09T19:48:30;17.00;99.90
4207;DHT22;2117;47.972;7.830;2022-09-09T19:51:03;17.00;99.90
4207;DHT22;2117;47.972;7.830;2022-09-09T19:53:30;17.10;99.90
4207;DHT22;2117;47.972;7.830;2022-09-09T19:55:56;17.10;99.90
4207;DHT22;2117;47.972;7.830;2022-09-09T19:58:22;17.10;99.90
4207;DHT22;2117;47.972;7.830;2022-09-09T20:00:47;17.10;99.90
4207;DHT22;2117;47.972;7.830;2022-09-09T20:03:13;17.20;99.90
4207;DHT22;2117;47.972;7.830;2022-09-09T20:05:39;17.20;99.90
4207;DHT22;2117;47.972;7.830;2022-09-09T20:08:05;17.20;99.90
4207;DHT22;2117;47.972;7.830;2022-09-09T20:10:30;17.20;99.90
4207;DHT22;2117;47.972;7.830;2022-09-09T20:12:56;17.20;99.90
4207;DHT22;2117;47.972;7.830;2022-09-09T20:15:22;17.20;99.90
4207;DHT22;2117;47.972;7.830;2022-09-09T20:17:47;17.20;99.90
4207;DHT22;2117;47.972;7.830;2022-09-09T20:20:14;17.20;99.90
4207;DHT22;2117;47.972;7.830;2022-09-09T20:22:39;17.20;99.90
4207;DHT22;2117;47.972;7.830;2022-09-09T20:25:05;17.20;99.90
4207;DHT22;2117;47.972;7.830;2022-09-09T20:27:31;17.20;99.90
4207;DHT22;2117;47.972;7.830;2022-09-09T20:29:57;17.20;99.90
4207;DHT22;2117;47.972;7.830;2022-09-09T20:32:23;17.20;99.90
4207;DHT22;2117;47.972;7.830;2022-09-09T20:34:49;17.20;99.90
4207;DHT22;2117;47.972;7.830;2022-09-09T20:37:14;17.20;99.90
4207;DHT22;2117;47.972;7.830;2022-09-09T20:39:41;17.20;99.90
4207;DHT22;2117;47.972;7.830;2022-09-09T20:42:06;17.20;99.90
4207;DHT22;2117;47.972;7.830;2022-09-09T20:44:32;17.20;99.90
4207;DHT22;2117;47.972;7.830;2022-09-09T20:46:58;17.20;99.90
4207;DHT22;2117;47.972;7.830;2022-09-09T20:49:31;17.20;99.90
4207;DHT22;2117;47.972;7.830;2022-09-09T20:51:59;17.20;99.90
4207;DHT22;2117;47.972;7.830;2022-09-09T20:54:26;17.20;99.90
4207;DHT22;2117;47.972;7.830;2022-09-09T20:56:55;17.20;99.90
4207;DHT22;2117;47.972;7.830;2022-09-09T20:59:25;17.20;99.90
4207;DHT22;2117;47.972;7.830;2022-09-09T21:01:52;17.20;99.90
4207;DHT22;2117;47.972;7.830;2022-09-09T21:04:19;17.20;99.90
4207;DHT22;2117;47.972;7.830;2022-09-09T21:06:46;17.20;99.90
4207;DHT22;2117;47.972;7.830;2022-09-09T21:09:14;17.20;99.90
4207;DHT22;2117;47.972;7.830;2022-09-09T21:11:40;17.20;99.90
4207;DHT22;2117;47.972;7.830;2022-09-09T21:14:06;17.10;99.90